Decoded Metar for CZMT (MASSET in BC, CANADA) (IATA:N/A) | Meteo·Mobile Aviation Weather
aviador You're here:

CZMT Decoded Metar

MASSET in BC, CANADA
Report Time2018-11-18 18:17:00
UTC Time2018-11-18 19:06:10
Flight Rules ifr IFR
Wind150° at 09 Gusting to 15 kt
W.Decomp.*RWY 13: 9.0 kt HW 0.3 kt LCW
W.Rank150° ranks 2
Current wind is below 150° avg. (11.0)
Visibility8047 m
Phenomena:Mist
Clouds:Broken 005 Hf
Overcast 015 Hf
Ceiling500 ft
Temp09°C (ISA -6)
Dew Point09°C (100% RH)
AAT5.5°C
QNH1020 hPa
Density Alt-771 ft
Elevation26 ft
Report Wrong Elevation
Raw Report
SPECI CZMT 181817Z 15009G15KT 5SM BR BKN005 OVC015 09/09 A3013 RMK ST7SC1 SLP205=

Extra information for CZMT:More info

Metar Taf Metar & Taf Last 4 Metars F.Rules Stats Wind Profile Meteogram Temp Stats Airport Information Weather charts Add Link Nearby VenuesMetar ALERT Operation Metar Decoded Social comments